Time;durP1;ratioP1;P1;durP2;ratioP2;P2;SDS_P1;SDS_P2;PMS_P1;PMS_P2;Temp;Humidity;BMP_temperature;BMP_pressure;BME280_temperature;BME280_humidity;BME280_pressure;Samples;Min_cycle;Max_cycle;Signal;HPM_P1;HPM_P2
2024/02/18 00:00:23;;;;;;;11.50;4.43;;;10.70;99.90;;;;;;8453589;28;20044;-73
2024/02/18 00:04:25;;;;;;;9.40;4.53;;;10.70;99.90;;;;;;8455856;28;20050;-72
2024/02/18 00:08:27;;;;;;;11.07;4.50;;;10.70;99.90;;;;;;8454980;28;20056;-72
2024/02/18 00:12:29;;;;;;;7.47;4.10;;;10.70;99.90;;;;;;8450639;28;20043;-73
2024/02/18 00:16:31;;;;;;;7.82;3.67;;;10.60;99.90;;;;;;8442254;28;20040;-72
2024/02/18 00:20:34;;;;;;;8.70;4.22;;;10.60;99.90;;;;;;8448649;28;20047;-72
2024/02/18 00:24:36;;;;;;;10.68;4.32;;;10.60;99.90;;;;;;8454989;28;20567;-73
2024/02/18 00:28:38;;;;;;;7.88;4.10;;;10.60;99.90;;;;;;8452378;28;20410;-73
2024/02/18 00:32:40;;;;;;;7.57;3.70;;;10.50;99.90;;;;;;8452728;28;20486;-72
2024/02/18 00:36:42;;;;;;;13.70;4.38;;;10.60;99.90;;;;;;8457226;28;20072;-73
2024/02/18 00:40:49;;;;;;;9.82;4.50;;;10.60;99.90;;;;;;8453291;28;20088;-72
2024/02/18 00:50:13;;;;;;;7.53;3.78;;;10.50;99.90;;;;;;8452331;28;20042;-72
2024/02/18 00:54:15;;;;;;;8.48;4.07;;;10.60;99.90;;;;;;8449046;28;20054;-72
2024/02/18 00:58:17;;;;;;;8.82;3.00;;;10.60;99.90;;;;;;8454239;28;20044;-72
2024/02/18 01:02:19;;;;;;;10.25;3.90;;;10.60;99.90;;;;;;8445129;28;20043;-72
2024/02/18 01:06:21;;;;;;;7.18;3.13;;;10.60;99.90;;;;;;8451449;28;20052;-72
2024/02/18 01:10:23;;;;;;;8.73;3.88;;;10.60;99.90;;;;;;8451640;28;20455;-72
2024/02/18 01:14:25;;;;;;;6.90;3.92;;;10.60;99.90;;;;;;8444307;28;20048;-72
2024/02/18 01:18:27;;;;;;;10.23;3.70;;;10.60;99.90;;;;;;8459437;27;20047;-72
2024/02/18 01:22:29;;;;;;;7.43;3.70;;;10.60;99.90;;;;;;8450984;28;20100;-72
2024/02/18 01:26:31;;;;;;;12.35;4.32;;;10.60;99.90;;;;;;8451148;28;20406;-72
2024/02/18 01:30:33;;;;;;;8.73;4.07;;;10.60;99.90;;;;;;8450560;28;20081;-72
2024/02/18 01:34:34;;;;;;;13.27;4.35;;;10.60;99.90;;;;;;8449721;28;20099;-72
2024/02/18 01:38:36;;;;;;;7.13;3.63;;;10.70;99.90;;;;;;8450392;28;20040;-72
2024/02/18 01:43:04;;;;;;;6.85;3.45;;;10.70;99.90;;;;;;8449443;28;20043;-72
2024/02/18 01:52:52;;;;;;;9.63;3.20;;;10.70;99.90;;;;;;8452719;28;20026;-72
2024/02/18 01:56:54;;;;;;;8.77;4.00;;;10.80;99.90;;;;;;8452554;28;20127;-72
2024/02/18 02:00:56;;;;;;;6.10;2.80;;;10.80;99.90;;;;;;8452177;28;20047;-72
2024/02/18 02:04:58;;;;;;;8.27;4.00;;;10.80;99.90;;;;;;8450177;28;20107;-72
2024/02/18 02:09:00;;;;;;;8.18;3.95;;;10.80;99.90;;;;;;8449985;28;20039;-72
2024/02/18 02:13:05;;;;;;;11.48;4.05;;;10.90;99.90;;;;;;8450303;28;20426;-72
2024/02/18 02:17:08;;;;;;;7.05;3.25;;;10.90;99.90;;;;;;8444008;28;20075;-72
2024/02/18 02:21:10;;;;;;;6.03;3.10;;;10.90;99.90;;;;;;8447849;28;20440;-72
2024/02/18 02:25:13;;;;;;;6.55;3.00;;;10.90;99.90;;;;;;8451028;28;20039;-72
2024/02/18 02:29:15;;;;;;;14.48;4.22;;;10.90;99.90;;;;;;8445249;28;20529;-72
2024/02/18 02:33:18;;;;;;;9.07;3.38;;;10.90;99.90;;;;;;8451717;28;20047;-73
2024/02/18 02:42:42;;;;;;;6.38;3.05;;;10.90;99.90;;;;;;8452495;28;20038;-72
2024/02/18 02:46:46;;;;;;;8.88;3.30;;;10.90;99.90;;;;;;8445940;28;20402;-72
2024/02/18 02:50:48;;;;;;;9.18;3.25;;;10.90;99.90;;;;;;8447828;28;20048;-72
2024/02/18 02:54:50;;;;;;;7.28;2.80;;;10.90;99.90;;;;;;8457331;28;20113;-72
2024/02/18 03:04:15;;;;;;;8.35;3.05;;;10.90;99.90;;;;;;8455499;28;20084;-72
2024/02/18 03:08:17;;;;;;;9.32;3.22;;;10.90;99.90;;;;;;8458095;28;20043;-72
2024/02/18 03:12:19;;;;;;;6.13;2.83;;;10.90;99.90;;;;;;8458162;28;20105;-71
2024/02/18 03:16:21;;;;;;;5.75;2.65;;;10.90;99.90;;;;;;8450935;28;20079;-72
2024/02/18 03:20:23;;;;;;;7.60;3.10;;;10.90;99.90;;;;;;8453053;28;20112;-72
2024/02/18 03:24:25;;;;;;;5.97;2.42;;;10.90;99.90;;;;;;8478373;27;20048;-72
2024/02/18 03:28:27;;;;;;;5.50;2.80;;;10.80;99.90;;;;;;8457160;28;20102;-72
2024/02/18 03:32:29;;;;;;;6.97;2.60;;;10.80;99.90;;;;;;8449990;28;20116;-72
2024/02/18 03:36:31;;;;;;;7.35;2.83;;;10.70;99.90;;;;;;8454506;28;20418;-72
2024/02/18 03:40:33;;;;;;;5.80;2.75;;;10.70;99.90;;;;;;8452580;28;20131;-72
2024/02/18 03:44:34;;;;;;;6.20;2.55;;;10.60;99.90;;;;;;8455172;28;20216;-72
2024/02/18 03:48:36;;;;;;;7.15;2.92;;;10.60;99.90;;;;;;8458405;28;20081;-72
2024/02/18 03:53:12;;;;;;;5.68;2.35;;;10.50;99.90;;;;;;8453273;28;20059;-71
2024/02/18 03:57:14;;;;;;;8.73;3.08;;;10.40;99.90;;;;;;8455956;28;20043;-72
2024/02/18 04:01:16;;;;;;;6.50;2.72;;;10.40;99.90;;;;;;8454428;28;20047;-72
2024/02/18 04:05:18;;;;;;;6.80;2.72;;;10.30;99.90;;;;;;8452580;28;20048;-72
2024/02/18 04:14:43;;;;;;;6.70;3.03;;;10.30;99.90;;;;;;8449526;28;20493;-72
2024/02/18 04:18:45;;;;;;;8.18;2.95;;;10.20;99.90;;;;;;8457198;28;20044;-72
2024/02/18 04:22:47;;;;;;;7.18;2.40;;;10.20;99.90;;;;;;8455235;28;20429;-72
2024/02/18 04:26:49;;;;;;;7.00;2.92;;;10.20;99.90;;;;;;8452092;28;20047;-72
2024/02/18 04:30:51;;;;;;;6.40;2.78;;;10.20;99.90;;;;;;8452229;28;20055;-72
2024/02/18 04:34:53;;;;;;;6.53;2.97;;;10.10;99.90;;;;;;8451001;28;20526;-72
2024/02/18 04:39:29;;;;;;;8.48;2.67;;;10.10;99.90;;;;;;8456593;28;20039;-72
2024/02/18 04:43:31;;;;;;;7.72;3.08;;;10.00;99.90;;;;;;8378298;28;20052;-72
2024/02/18 04:47:32;;;;;;;9.25;3.20;;;10.00;99.90;;;;;;8385462;28;20064;-72
2024/02/18 04:51:34;;;;;;;8.25;2.90;;;10.00;99.90;;;;;;8385803;28;20059;-72
2024/02/18 04:55:36;;;;;;;6.18;3.00;;;10.10;99.90;;;;;;8381478;28;20426;-72
2024/02/18 04:59:38;;;;;;;6.85;2.50;;;10.10;99.90;;;;;;8387166;28;20044;-72
2024/02/18 05:03:43;;;;;;;8.77;2.90;;;10.10;99.90;;;;;;8383153;28;20071;-72
2024/02/18 05:07:45;;;;;;;4.72;2.53;;;10.10;99.90;;;;;;8387002;28;20040;-72
2024/02/18 05:11:46;;;;;;;9.98;3.65;;;10.10;99.90;;;;;;8386221;28;20409;-72
2024/02/18 05:15:51;;;;;;;11.05;3.00;;;10.20;99.90;;;;;;8377864;28;20561;-72
2024/02/18 05:19:53;;;;;;;5.97;2.78;;;10.20;99.90;;;;;;8383939;28;20098;-72
2024/02/18 05:23:57;;;;;;;6.75;2.60;;;10.20;99.90;;;;;;8386131;28;20044;-72
2024/02/18 05:27:58;;;;;;;5.68;2.47;;;10.20;99.90;;;;;;8383975;28;20044;-72
2024/02/18 05:37:02;;;;;;;7.93;2.67;;;10.20;99.90;;;;;;8384490;28;20041;-72
2024/02/18 05:41:04;;;;;;;8.07;2.72;;;10.30;99.90;;;;;;8413114;28;20093;-72
2024/02/18 06:06:57;;;;;;;9.43;3.15;;;10.10;99.90;;;;;;8451955;28;20087;-72
2024/02/18 06:11:00;;;;;;;7.35;2.72;;;9.90;99.90;;;;;;8428564;28;20047;-72
2024/02/18 06:15:02;;;;;;;10.50;3.22;;;9.90;99.90;;;;;;8424071;28;20048;-72
2024/02/18 06:19:04;;;;;;;7.32;3.00;;;9.80;99.90;;;;;;8420701;28;20522;-72
2024/02/18 06:23:38;;;;;;;7.13;2.70;;;9.70;99.90;;;;;;8417188;28;20475;-72
2024/02/18 06:27:40;;;;;;;7.20;3.08;;;9.70;99.90;;;;;;8422751;28;20042;-72
2024/02/18 06:31:42;;;;;;;8.20;2.92;;;9.60;99.90;;;;;;8423424;28;20086;-72
2024/02/18 06:35:44;;;;;;;6.82;3.00;;;9.70;99.90;;;;;;8428523;27;20396;-72
2024/02/18 06:39:46;;;;;;;8.95;2.90;;;9.70;99.90;;;;;;8430353;27;20348;-72
2024/02/18 06:43:48;;;;;;;9.48;3.25;;;9.70;99.90;;;;;;8429738;28;20406;-72
2024/02/18 06:47:50;;;;;;;4.93;2.58;;;9.70;99.90;;;;;;8436526;28;20047;-72
2024/02/18 06:57:14;;;;;;;5.18;2.40;;;9.60;99.90;;;;;;8431944;28;20481;-72
2024/02/18 07:01:19;;;;;;;7.90;3.10;;;9.60;99.90;;;;;;8436984;28;20065;-72
2024/02/18 07:05:21;;;;;;;7.95;2.63;;;9.60;99.90;;;;;;8435464;28;20108;-72
2024/02/18 07:09:23;;;;;;;6.70;2.80;;;9.50;99.90;;;;;;8430012;28;20231;-72
2024/02/18 07:13:25;;;;;;;5.93;2.55;;;9.50;99.90;;;;;;8429381;28;20066;-72
2024/02/18 07:17:28;;;;;;;7.03;2.70;;;9.50;99.90;;;;;;8459999;27;20082;-72
2024/02/18 07:21:30;;;;;;;6.90;2.55;;;9.50;99.90;;;;;;8460340;27;20540;-72
2024/02/18 07:25:33;;;;;;;7.55;2.90;;;9.50;99.90;;;;;;8426663;28;22404;-72
2024/02/18 07:29:36;;;;;;;6.82;2.67;;;9.40;99.90;;;;;;8429682;28;20498;-72
2024/02/18 07:33:37;;;;;;;6.88;2.65;;;9.40;99.90;;;;;;8431887;28;20078;-72
2024/02/18 07:37:40;;;;;;;10.05;2.85;;;9.40;99.90;;;;;;8430673;28;20077;-72
2024/02/18 07:41:41;;;;;;;5.10;2.30;;;9.40;99.90;;;;;;8427224;27;20092;-72
2024/02/18 07:45:43;;;;;;;6.70;2.60;;;9.40;99.90;;;;;;8425619;28;20047;-72
2024/02/18 07:49:46;;;;;;;6.65;2.47;;;9.40;99.90;;;;;;8422953;28;20149;-72
2024/02/18 07:53:48;;;;;;;6.00;2.88;;;9.40;99.90;;;;;;8423635;28;20055;-72
2024/02/18 07:57:50;;;;;;;6.88;2.50;;;9.40;99.90;;;;;;8427695;28;20051;-72
2024/02/18 08:01:52;;;;;;;8.23;2.40;;;9.40;99.90;;;;;;8423286;28;20051;-72
2024/02/18 08:05:54;;;;;;;4.65;2.42;;;9.30;99.90;;;;;;8415872;27;20051;-72
2024/02/18 08:09:56;;;;;;;6.32;2.20;;;9.30;99.90;;;;;;8431303;28;20498;-73
2024/02/18 08:13:58;;;;;;;8.30;2.58;;;9.30;99.90;;;;;;8434411;27;20090;-72
2024/02/18 08:17:59;;;;;;;7.72;2.60;;;9.20;99.90;;;;;;8425079;28;20051;-72
2024/02/18 08:22:02;;;;;;;5.97;2.30;;;9.20;99.90;;;;;;8424525;28;20468;-72
2024/02/18 08:26:04;;;;;;;5.35;2.30;;;9.20;99.90;;;;;;8432842;28;20050;-72
2024/02/18 08:30:08;;;;;;;11.50;3.17;;;9.20;99.90;;;;;;8422232;28;20124;-72
2024/02/18 08:34:11;;;;;;;8.05;2.70;;;9.20;99.90;;;;;;8426389;27;20135;-72
2024/02/18 08:43:42;;;;;;;5.65;2.38;;;9.20;99.90;;;;;;8418584;28;20093;-72
2024/02/18 08:47:44;;;;;;;10.27;2.92;;;9.20;99.90;;;;;;8422110;27;20040;-73
2024/02/18 08:51:46;;;;;;;10.15;3.03;;;9.10;99.90;;;;;;8431953;27;20056;-73
2024/02/18 08:55:48;;;;;;;9.73;3.30;;;9.10;99.90;;;;;;8421492;28;20097;-72
2024/02/18 08:59:49;;;;;;;8.27;3.03;;;9.10;99.90;;;;;;8432496;28;20297;-72
2024/02/18 09:03:52;;;;;;;8.05;2.95;;;9.10;99.90;;;;;;8428293;28;20048;-72
2024/02/18 09:07:53;;;;;;;7.55;3.30;;;9.10;99.90;;;;;;8420431;28;20044;-72
2024/02/18 09:11:55;;;;;;;8.30;2.95;;;9.20;99.90;;;;;;8421036;28;20040;-72
2024/02/18 09:15:57;;;;;;;10.13;3.22;;;9.10;99.90;;;;;;8419853;28;20048;-72
2024/02/18 09:19:59;;;;;;;6.40;3.00;;;9.20;99.90;;;;;;8420300;28;20043;-73
2024/02/18 09:24:01;;;;;;;5.85;3.22;;;9.20;99.90;;;;;;8424987;28;20402;-72
2024/02/18 09:28:04;;;;;;;6.80;3.42;;;9.20;99.90;;;;;;8431794;28;20415;-73
2024/02/18 09:32:06;;;;;;;9.77;3.10;;;9.20;99.90;;;;;;8423872;28;20053;-72
2024/02/18 09:36:08;;;;;;;6.75;3.00;;;9.20;99.90;;;;;;8424762;28;20126;-72
2024/02/18 09:40:11;;;;;;;6.32;3.00;;;9.20;99.90;;;;;;8426293;28;20579;-72
2024/02/18 09:44:14;;;;;;;8.50;3.28;;;9.20;99.90;;;;;;8421758;28;20048;-73
2024/02/18 09:48:17;;;;;;;7.70;3.60;;;9.10;99.90;;;;;;8427479;28;20188;-72
2024/02/18 09:52:21;;;;;;;8.52;3.28;;;9.10;99.90;;;;;;8422935;28;20441;-72
2024/02/18 09:56:22;;;;;;;10.88;3.85;;;9.10;99.90;;;;;;8423988;28;20047;-72
2024/02/18 10:00:25;;;;;;;9.52;4.07;;;9.00;99.90;;;;;;8439979;28;20055;-72
2024/02/18 10:04:27;;;;;;;7.78;3.53;;;9.10;99.90;;;;;;8441320;28;20105;-72
2024/02/18 10:08:43;;;;;;;10.13;4.03;;;9.00;99.90;;;;;;8426846;27;20055;-72
2024/02/18 10:12:46;;;;;;;9.13;3.30;;;9.00;99.90;;;;;;8423737;28;20044;-72
2024/02/18 10:16:49;;;;;;;10.60;4.13;;;9.00;99.90;;;;;;8424287;28;20426;-72
2024/02/18 10:20:54;;;;;;;9.18;4.25;;;9.00;99.90;;;;;;8425185;28;20108;-72
2024/02/18 10:24:56;;;;;;;7.78;3.92;;;9.10;99.90;;;;;;8421477;28;20067;-72
2024/02/18 10:29:00;;;;;;;8.95;3.85;;;9.10;99.90;;;;;;8424318;28;20079;-72
2024/02/18 10:33:02;;;;;;;9.50;3.83;;;9.10;99.90;;;;;;8420359;28;20090;-72
2024/02/18 10:37:08;;;;;;;7.10;3.78;;;9.10;99.90;;;;;;8422335;28;20048;-72
2024/02/18 10:41:18;;;;;;;8.05;3.30;;;9.10;99.90;;;;;;8448397;27;20461;-72
2024/02/18 10:45:21;;;;;;;8.13;4.15;;;9.10;99.90;;;;;;8452848;27;20043;-72
2024/02/18 10:49:33;;;;;;;7.40;3.38;;;9.10;99.90;;;;;;8428986;28;22059;-72
2024/02/18 10:53:46;;;;;;;8.63;3.72;;;9.00;99.90;;;;;;8449468;27;20048;-73
2024/02/18 10:57:54;;;;;;;9.60;3.50;;;9.00;99.90;;;;;;8424466;28;20483;-73
2024/02/18 11:02:15;;;;;;;7.85;4.05;;;9.00;99.90;;;;;;8425313;28;20518;-74
2024/02/18 11:06:17;;;;;;;9.50;3.83;;;9.00;99.90;;;;;;8422800;28;20058;-73
2024/02/18 11:10:21;;;;;;;7.38;3.78;;;9.00;99.90;;;;;;8431585;28;20591;-73
2024/02/18 11:14:23;;;;;;;8.90;3.47;;;9.00;99.90;;;;;;8428874;28;20071;-73
2024/02/18 11:18:26;;;;;;;10.98;3.90;;;8.90;99.90;;;;;;8430382;28;20044;-73
2024/02/18 11:22:29;;;;;;;11.13;3.80;;;8.90;99.90;;;;;;8431493;28;20044;-73
2024/02/18 11:26:31;;;;;;;9.10;3.55;;;8.90;99.90;;;;;;8432739;28;20048;-73
2024/02/18 11:30:33;;;;;;;7.05;3.53;;;8.90;99.90;;;;;;8427156;28;20044;-73
2024/02/18 11:34:35;;;;;;;11.43;4.28;;;8.90;99.90;;;;;;8429421;28;20073;-73
2024/02/18 11:38:44;;;;;;;8.45;3.67;;;8.90;99.90;;;;;;8417237;27;20065;-73
2024/02/18 11:42:47;;;;;;;6.57;3.70;;;8.90;99.90;;;;;;8426389;27;20052;-73
2024/02/18 11:46:50;;;;;;;9.27;3.90;;;8.90;99.90;;;;;;8437168;28;20043;-73
2024/02/18 11:50:52;;;;;;;9.23;4.05;;;8.90;99.90;;;;;;8434403;28;20059;-73
2024/02/18 11:54:53;;;;;;;6.40;3.72;;;8.90;99.90;;;;;;8441802;27;20707;-73
2024/02/18 11:58:55;;;;;;;7.78;3.53;;;8.90;99.90;;;;;;8436960;28;20134;-73
2024/02/18 12:03:00;;;;;;;6.22;3.65;;;8.90;99.90;;;;;;8434544;28;20073;-73
2024/02/18 12:07:03;;;;;;;5.72;3.28;;;8.90;99.90;;;;;;8430793;28;20058;-73
2024/02/18 12:11:05;;;;;;;6.30;3.45;;;8.90;99.90;;;;;;8430130;28;20052;-74
2024/02/18 12:15:08;;;;;;;7.18;3.75;;;8.90;99.90;;;;;;8427449;27;20048;-73
2024/02/18 12:19:10;;;;;;;8.60;3.75;;;8.90;99.90;;;;;;8426338;28;20524;-73
2024/02/18 12:23:12;;;;;;;7.00;3.78;;;8.90;99.90;;;;;;8443279;28;20351;-73
2024/02/18 12:27:14;;;;;;;8.32;3.88;;;8.90;99.90;;;;;;8426956;28;20051;-73
2024/02/18 12:31:17;;;;;;;9.70;4.63;;;8.90;99.90;;;;;;8426206;28;20051;-73
2024/02/18 12:35:19;;;;;;;8.10;3.22;;;8.90;99.90;;;;;;8427213;28;20047;-73
2024/02/18 12:39:22;;;;;;;8.25;4.70;;;8.90;99.90;;;;;;8427317;28;20428;-73
2024/02/18 12:43:28;;;;;;;6.78;3.15;;;8.90;99.90;;;;;;8428858;28;20050;-73
2024/02/18 12:47:51;;;;;;;7.07;3.58;;;8.90;99.90;;;;;;8436092;28;20079;-74
2024/02/18 12:52:04;;;;;;;5.65;2.90;;;9.00;99.90;;;;;;8431992;28;20043;-74
2024/02/18 12:56:07;;;;;;;8.48;3.35;;;9.00;99.90;;;;;;8430539;28;20051;-74
2024/02/18 13:00:10;;;;;;;8.98;4.05;;;9.00;99.90;;;;;;8433970;28;20412;-74
2024/02/18 13:04:12;;;;;;;7.68;3.10;;;9.00;99.90;;;;;;8429679;28;21460;-74
2024/02/18 13:08:14;;;;;;;6.65;3.22;;;9.00;99.90;;;;;;8432419;28;20060;-74
2024/02/18 13:12:16;;;;;;;7.47;3.20;;;9.00;99.90;;;;;;8425808;28;20051;-73
2024/02/18 13:16:18;;;;;;;5.00;3.00;;;9.00;99.90;;;;;;8423476;28;20055;-73
2024/02/18 13:20:20;;;;;;;8.13;3.10;;;9.00;99.90;;;;;;8425911;28;20048;-73
2024/02/18 13:24:22;;;;;;;6.82;3.47;;;9.00;99.90;;;;;;8431405;28;20055;-73
2024/02/18 13:28:24;;;;;;;4.97;2.70;;;9.00;99.90;;;;;;8438165;28;20293;-72
2024/02/18 13:32:26;;;;;;;5.13;2.80;;;9.00;99.90;;;;;;8425463;28;20047;-72
2024/02/18 13:36:28;;;;;;;6.25;3.00;;;9.00;99.90;;;;;;8423154;28;20359;-73
2024/02/18 13:40:30;;;;;;;5.57;2.97;;;9.10;99.90;;;;;;8421952;28;20490;-73
2024/02/18 13:44:32;;;;;;;5.95;2.55;;;9.10;99.90;;;;;;8423921;28;20046;-73
2024/02/18 13:48:35;;;;;;;6.03;2.95;;;9.10;99.90;;;;;;8429345;28;20051;-72
2024/02/18 13:52:37;;;;;;;4.97;3.00;;;9.10;99.90;;;;;;8425636;28;20088;-72
2024/02/18 13:56:41;;;;;;;4.18;2.60;;;9.10;99.90;;;;;;8422623;28;20470;-73
2024/02/18 14:00:43;;;;;;;5.65;3.28;;;9.10;99.90;;;;;;8425987;28;20108;-73
2024/02/18 14:04:45;;;;;;;5.25;3.10;;;9.20;99.90;;;;;;8426728;28;20043;-72
2024/02/18 14:08:46;;;;;;;5.47;2.97;;;9.20;99.90;;;;;;8430135;28;20055;-72
2024/02/18 14:12:49;;;;;;;5.40;3.28;;;9.30;99.90;;;;;;8431117;28;20051;-72
2024/02/18 14:16:51;;;;;;;4.93;3.35;;;9.30;99.90;;;;;;8422528;28;20052;-72
2024/02/18 14:20:53;;;;;;;5.88;3.30;;;9.40;99.90;;;;;;8424406;28;20109;-72
2024/02/18 14:24:58;;;;;;;6.13;3.88;;;9.40;99.90;;;;;;8434978;28;20479;-72
2024/02/18 14:29:01;;;;;;;7.75;4.30;;;9.50;99.90;;;;;;8422084;28;20517;-72
2024/02/18 14:33:06;;;;;;;6.78;4.80;;;9.60;99.90;;;;;;8428145;28;20048;-73
2024/02/18 14:37:08;;;;;;;6.68;4.72;;;9.70;99.90;;;;;;8453776;27;20055;-73
2024/02/18 14:41:10;;;;;;;7.43;4.03;;;9.80;99.90;;;;;;8423097;28;20056;-73
2024/02/18 14:45:16;;;;;;;6.53;3.90;;;9.90;99.90;;;;;;8423751;28;20048;-73
2024/02/18 14:49:18;;;;;;;5.57;3.47;;;10.00;99.90;;;;;;8429276;28;20052;-73
2024/02/18 14:53:20;;;;;;;6.63;3.40;;;10.10;99.90;;;;;;8433014;28;20056;-73
2024/02/18 14:57:22;;;;;;;5.32;3.13;;;10.20;99.90;;;;;;8434640;28;20054;-73
2024/02/18 15:01:24;;;;;;;5.10;2.65;;;10.20;99.90;;;;;;8433167;28;20094;-73
2024/02/18 15:05:26;;;;;;;4.25;2.30;;;10.20;99.90;;;;;;8433167;28;20395;-73
2024/02/18 15:09:32;;;;;;;3.97;2.10;;;10.30;99.90;;;;;;8429930;27;20052;-73
2024/02/18 15:13:33;;;;;;;4.10;2.10;;;10.30;99.90;;;;;;8428667;28;20051;-73
2024/02/18 15:17:35;;;;;;;2.90;1.30;;;10.30;99.90;;;;;;8430394;28;20464;-73
2024/02/18 15:21:37;;;;;;;1.98;1.05;;;10.30;99.90;;;;;;8424274;27;20131;-74
2024/02/18 15:25:39;;;;;;;2.70;1.08;;;10.30;99.90;;;;;;8444137;28;20506;-73
2024/02/18 15:29:41;;;;;;;2.33;1.05;;;10.30;99.90;;;;;;8441858;28;20498;-73
2024/02/18 15:33:43;;;;;;;2.30;1.00;;;10.40;99.90;;;;;;8440391;28;20075;-73
2024/02/18 15:37:45;;;;;;;1.17;0.70;;;10.40;99.90;;;;;;8432164;28;20055;-73
2024/02/18 15:41:47;;;;;;;1.08;0.70;;;10.40;99.90;;;;;;8430217;28;20043;-73
2024/02/18 15:45:49;;;;;;;2.17;0.80;;;10.40;99.90;;;;;;8434779;28;20480;-73
2024/02/18 15:49:52;;;;;;;2.10;0.82;;;10.40;99.90;;;;;;8430242;28;20059;-73
2024/02/18 15:53:54;;;;;;;3.25;0.95;;;10.50;99.90;;;;;;8428948;28;20065;-73
2024/02/18 15:57:58;;;;;;;2.00;0.90;;;10.50;99.90;;;;;;8427410;27;20059;-73
2024/02/18 16:02:00;;;;;;;2.20;0.80;;;10.50;99.90;;;;;;8431319;27;20487;-73
2024/02/18 16:06:02;;;;;;;6.68;0.90;;;10.40;99.90;;;;;;8430522;27;20139;-73
2024/02/18 16:10:04;;;;;;;4.28;0.90;;;10.40;99.90;;;;;;8431152;27;20051;-74
2024/02/18 16:14:06;;;;;;;6.50;1.00;;;10.30;99.90;;;;;;8428368;28;20074;-73
2024/02/18 16:18:08;;;;;;;3.58;1.15;;;10.20;99.90;;;;;;8431425;28;20070;-74
2024/02/18 16:22:11;;;;;;;2.83;1.00;;;10.20;99.90;;;;;;8425515;27;20074;-74
2024/02/18 16:26:14;;;;;;;2.80;0.88;;;10.10;99.90;;;;;;8437516;27;20055;-74
2024/02/18 16:30:19;;;;;;;4.07;1.00;;;10.10;99.90;;;;;;8439812;27;20047;-74
2024/02/18 16:34:21;;;;;;;1.52;0.80;;;10.00;99.90;;;;;;8439742;28;20048;-74
2024/02/18 16:38:23;;;;;;;4.65;0.75;;;10.00;99.90;;;;;;8435550;28;20083;-74
2024/02/18 16:42:25;;;;;;;0.75;0.57;;;9.90;99.90;;;;;;8459032;27;20094;-74
2024/02/18 16:46:27;;;;;;;1.52;0.60;;;9.90;99.90;;;;;;8429269;28;20043;-74
2024/02/18 16:50:30;;;;;;;1.60;0.70;;;9.80;99.90;;;;;;8430994;28;20052;-74
2024/02/18 16:54:32;;;;;;;3.03;0.80;;;9.80;99.90;;;;;;8425459;28;20145;-74
2024/02/18 16:58:34;;;;;;;3.75;0.80;;;9.70;99.90;;;;;;8437473;28;20055;-74
2024/02/18 17:02:36;;;;;;;2.00;1.02;;;9.70;99.90;;;;;;8427814;28;20406;-74
2024/02/18 17:06:42;;;;;;;4.80;1.23;;;9.60;99.90;;;;;;8431994;28;20052;-74
2024/02/18 17:10:44;;;;;;;5.30;1.05;;;9.60;99.90;;;;;;8429798;28;20491;-74
2024/02/18 17:14:47;;;;;;;5.25;1.30;;;9.60;99.90;;;;;;8421965;27;20040;-74
2024/02/18 17:18:50;;;;;;;4.32;1.10;;;9.50;99.90;;;;;;8428556;28;20055;-74
2024/02/18 17:22:52;;;;;;;7.30;1.30;;;9.50;99.90;;;;;;8425349;28;20040;-74
2024/02/18 17:26:58;;;;;;;3.40;1.10;;;9.40;99.90;;;;;;8432655;28;20059;-74
2024/02/18 17:31:00;;;;;;;8.65;1.20;;;9.40;99.90;;;;;;8426368;28;20396;-74
2024/02/18 17:35:02;;;;;;;5.80;1.45;;;9.30;99.90;;;;;;8426329;28;20051;-74
2024/02/18 17:39:06;;;;;;;8.48;1.55;;;9.30;99.90;;;;;;8429778;27;20055;-74
2024/02/18 17:43:11;;;;;;;7.80;1.50;;;9.30;99.90;;;;;;8438342;27;20060;-74
2024/02/18 17:47:14;;;;;;;9.70;1.55;;;9.20;99.90;;;;;;8434184;28;20491;-74
2024/02/18 17:51:16;;;;;;;7.22;1.67;;;9.20;99.90;;;;;;8430381;28;20526;-74
2024/02/18 17:55:18;;;;;;;4.03;1.20;;;9.20;99.90;;;;;;8434979;28;20052;-74
2024/02/18 17:59:20;;;;;;;6.80;1.30;;;9.20;99.90;;;;;;8433899;27;20039;-75
2024/02/18 18:03:22;;;;;;;3.30;0.80;;;9.20;99.90;;;;;;8442503;28;20478;-75
2024/02/18 18:07:24;;;;;;;5.00;1.15;;;9.20;99.90;;;;;;8429132;28;20043;-75
2024/02/18 18:11:27;;;;;;;6.40;1.30;;;9.30;99.90;;;;;;8425871;28;20071;-75
2024/02/18 18:15:29;;;;;;;4.30;1.10;;;9.30;99.90;;;;;;8436208;28;20381;-75
2024/02/18 18:19:31;;;;;;;9.27;1.45;;;9.30;99.90;;;;;;8431326;28;20055;-75
2024/02/18 18:23:33;;;;;;;6.63;1.45;;;9.30;99.90;;;;;;8430497;28;20043;-75
2024/02/18 18:27:35;;;;;;;11.32;2.40;;;9.30;99.90;;;;;;8426227;28;20479;-75
2024/02/18 18:31:38;;;;;;;9.57;2.03;;;9.20;99.90;;;;;;8426025;28;20075;-75
2024/02/18 18:35:40;;;;;;;5.80;2.10;;;9.20;99.90;;;;;;8436029;28;20482;-75
2024/02/18 18:39:42;;;;;;;4.88;1.40;;;9.20;99.90;;;;;;8434511;28;20043;-75
2024/02/18 18:43:44;;;;;;;7.45;1.50;;;9.20;99.90;;;;;;8432214;28;20059;-74
2024/02/18 18:47:46;;;;;;;4.65;1.50;;;9.20;99.90;;;;;;8428894;28;20083;-75
2024/02/18 18:51:50;;;;;;;5.60;1.48;;;9.20;99.90;;;;;;8431792;28;20047;-74
2024/02/18 18:55:52;;;;;;;7.35;1.50;;;9.20;99.90;;;;;;8427450;28;20151;-74
2024/02/18 18:59:54;;;;;;;8.00;1.80;;;9.20;99.90;;;;;;8426300;28;20040;-75
2024/02/18 19:03:56;;;;;;;8.73;2.13;;;9.20;99.90;;;;;;8428028;28;20048;-75
2024/02/18 19:07:58;;;;;;;9.45;1.73;;;9.20;99.90;;;;;;8426812;28;20048;-75
2024/02/18 19:12:00;;;;;;;11.15;2.28;;;9.20;99.90;;;;;;8422919;28;20437;-74
2024/02/18 19:16:02;;;;;;;9.18;2.00;;;9.10;99.90;;;;;;8421940;28;20384;-74
2024/02/18 19:20:05;;;;;;;9.55;2.13;;;9.10;99.90;;;;;;8432759;28;20436;-75
2024/02/18 19:24:08;;;;;;;12.82;2.03;;;9.10;99.90;;;;;;8434883;28;20093;-76
2024/02/18 19:28:10;;;;;;;10.18;1.90;;;9.10;99.90;;;;;;8423370;28;20047;-75
2024/02/18 19:32:12;;;;;;;8.70;2.10;;;9.00;99.90;;;;;;8423796;28;20101;-74
2024/02/18 19:36:15;;;;;;;14.25;2.30;;;9.10;99.90;;;;;;8440612;28;20088;-75
2024/02/18 19:40:18;;;;;;;6.85;1.85;;;9.00;99.90;;;;;;8438879;28;20821;-75
2024/02/18 19:44:20;;;;;;;8.73;1.92;;;9.00;99.90;;;;;;8431127;28;20044;-75
2024/02/18 19:48:22;;;;;;;9.40;1.92;;;9.00;99.90;;;;;;8433578;27;20051;-74
2024/02/18 19:52:30;;;;;;;14.90;2.67;;;9.00;99.90;;;;;;8438655;27;20315;-74
2024/02/18 19:56:32;;;;;;;9.88;2.17;;;9.00;99.90;;;;;;8432398;28;20427;-74
2024/02/18 20:00:34;;;;;;;11.40;2.63;;;9.00;99.90;;;;;;8438186;28;20058;-74
2024/02/18 20:04:35;;;;;;;7.47;1.92;;;9.00;99.90;;;;;;8437423;27;20040;-74
2024/02/18 20:08:38;;;;;;;7.88;2.15;;;9.00;99.90;;;;;;8445362;28;20085;-74
2024/02/18 20:12:40;;;;;;;7.70;2.25;;;9.00;99.90;;;;;;8437209;28;20048;-75
2024/02/18 20:16:42;;;;;;;8.48;2.08;;;9.00;99.90;;;;;;8438894;28;20052;-75
2024/02/18 20:20:44;;;;;;;9.32;2.30;;;9.00;99.90;;;;;;8433548;28;20086;-75
2024/02/18 20:24:51;;;;;;;6.70;2.00;;;9.00;99.90;;;;;;8434695;28;20048;-75
2024/02/18 20:28:53;;;;;;;9.50;2.20;;;9.00;99.90;;;;;;8434838;28;20043;-75
2024/02/18 20:32:55;;;;;;;11.40;2.60;;;9.00;99.90;;;;;;8440838;28;20488;-75
2024/02/18 20:37:02;;;;;;;8.02;2.60;;;9.00;99.90;;;;;;8434141;28;20104;-75
2024/02/18 20:41:06;;;;;;;;;;;9.00;99.90;;;;;;8432138;28;20070;-75
2024/02/18 20:45:08;;;;;;;7.15;2.15;;;9.00;99.90;;;;;;8463646;27;19924;-75
2024/02/18 20:49:10;;;;;;;6.47;2.30;;;9.00;99.90;;;;;;8431631;28;20036;-75
2024/02/18 20:53:12;;;;;;;8.00;2.30;;;9.00;99.90;;;;;;8438734;27;20127;-75
2024/02/18 20:57:15;;;;;;;7.03;2.40;;;8.90;99.90;;;;;;8429456;28;20116;-75
2024/02/18 21:01:16;;;;;;;7.65;2.10;;;8.90;99.90;;;;;;8428087;28;20044;-74
2024/02/18 21:05:19;;;;;;;10.02;2.60;;;8.90;99.90;;;;;;8433753;27;20040;-74
2024/02/18 21:09:20;;;;;;;5.63;2.05;;;8.90;99.90;;;;;;8429564;28;20055;-74
2024/02/18 21:13:23;;;;;;;12.75;3.63;;;8.90;99.90;;;;;;8433407;28;20514;-74
2024/02/18 21:17:25;;;;;;;12.02;2.55;;;8.90;99.90;;;;;;8436272;28;20097;-74
2024/02/18 21:21:26;;;;;;;12.50;3.22;;;8.90;99.90;;;;;;8429894;28;20465;-75
2024/02/18 21:25:28;;;;;;;15.57;3.33;;;8.90;99.90;;;;;;8433712;28;20051;-74
2024/02/18 21:29:32;;;;;;;8.23;3.15;;;8.90;99.90;;;;;;8434948;28;20043;-75
2024/02/18 21:33:34;;;;;;;13.63;3.42;;;8.90;99.90;;;;;;8437490;28;20047;-74
2024/02/18 21:37:36;;;;;;;7.97;2.75;;;8.90;99.90;;;;;;8444504;28;20039;-74
2024/02/18 21:41:46;;;;;;;14.18;3.80;;;8.90;99.90;;;;;;8428966;28;20039;-74
2024/02/18 21:45:47;;;;;;;12.93;3.63;;;8.90;99.90;;;;;;8428145;28;20051;-74
2024/02/18 21:49:49;;;;;;;16.88;4.78;;;8.90;99.90;;;;;;8428320;28;20044;-74
2024/02/18 21:53:51;;;;;;;13.30;3.92;;;8.90;99.90;;;;;;8429285;28;20097;-74
2024/02/18 21:57:53;;;;;;;14.85;4.13;;;8.90;99.90;;;;;;8427909;28;20048;-74
2024/02/18 22:01:55;;;;;;;16.00;4.45;;;8.90;99.90;;;;;;8438249;28;20055;-74
2024/02/18 22:05:57;;;;;;;13.70;4.20;;;9.00;99.90;;;;;;8448596;28;20042;-74
2024/02/18 22:09:59;;;;;;;14.50;4.38;;;9.00;99.90;;;;;;8455332;28;20047;-74
2024/02/18 22:14:02;;;;;;;10.57;3.63;;;9.00;99.90;;;;;;8451617;28;20063;-74
2024/02/18 22:18:05;;;;;;;16.50;3.92;;;9.00;99.90;;;;;;8451380;28;20051;-74